createdAt,value
2022-08-29T00:02:10.471Z,100.00
2022-08-29T00:12:15.388Z,100.00
2022-08-29T00:22:19.639Z,100.00
2022-08-29T00:32:35.167Z,100.00
2022-08-29T00:42:38.778Z,100.00
2022-08-29T00:52:44.868Z,100.00
2022-08-29T01:02:55.678Z,100.00
2022-08-29T01:13:04.162Z,100.00
2022-08-29T01:23:28.950Z,100.00
2022-08-29T01:33:47.455Z,100.00
2022-08-29T01:43:54.411Z,100.00
2022-08-29T01:53:56.488Z,100.00
2022-08-29T02:04:01.357Z,100.00
2022-08-29T02:14:16.645Z,100.00
2022-08-29T02:24:26.089Z,100.00
2022-08-29T02:34:31.231Z,100.00
2022-08-29T02:44:36.994Z,100.00
2022-08-29T02:54:47.565Z,100.00
2022-08-29T03:04:53.837Z,100.00
2022-08-29T03:14:59.211Z,100.00
2022-08-29T03:25:07.290Z,100.00
2022-08-29T03:35:13.063Z,100.00
2022-08-29T03:45:19.835Z,100.00
2022-08-29T03:55:30.181Z,100.00
2022-08-29T04:05:34.849Z,100.00
2022-08-29T04:15:42.455Z,100.00
2022-08-29T04:25:49.283Z,100.00
2022-08-29T04:35:54.069Z,100.00
2022-08-29T04:45:58.592Z,100.00
2022-08-29T04:56:07.208Z,100.00
2022-08-29T05:06:14.861Z,100.00
2022-08-29T05:16:18.341Z,100.00
2022-08-29T05:26:20.977Z,100.00
2022-08-29T05:36:30.666Z,100.00
2022-08-29T05:46:35.853Z,100.00
2022-08-29T05:56:40.870Z,100.00
2022-08-29T06:06:45.254Z,100.00
2022-08-29T06:16:50.721Z,100.00
2022-08-29T06:27:00.020Z,100.00
2022-08-29T06:37:02.962Z,100.00
2022-08-29T06:47:08.932Z,100.00
2022-08-29T06:57:11.711Z,100.00
2022-08-29T07:07:13.801Z,100.00
2022-08-29T07:17:25.674Z,100.00
2022-08-29T07:27:29.351Z,100.00
2022-08-29T07:37:33.697Z,100.00
2022-08-29T07:47:36.317Z,100.00
2022-08-29T07:57:41.310Z,100.00
2022-08-29T08:07:46.170Z,100.00
2022-08-29T08:17:49.986Z,96.19
2022-08-29T08:27:54.940Z,95.06
2022-08-29T08:37:57.154Z,97.27
2022-08-29T08:48:11.310Z,99.67
2022-08-29T08:58:38.314Z,97.57
2022-08-29T09:08:47.417Z,96.91
2022-08-29T09:18:55.986Z,92.99
2022-08-29T09:28:59.282Z,83.55
2022-08-29T09:39:23.266Z,79.29
2022-08-29T09:49:28.809Z,74.27
2022-08-29T09:59:36.769Z,69.89
2022-08-29T10:09:41.869Z,65.95
2022-08-29T10:19:53.042Z,64.10
2022-08-29T10:30:07.642Z,63.09
2022-08-29T10:40:20.671Z,58.95
2022-08-29T10:50:47.006Z,55.96
2022-08-29T11:00:59.138Z,55.46
2022-08-29T11:11:06.180Z,55.90
2022-08-29T11:21:37.282Z,53.06
2022-08-29T11:32:04.873Z,48.57
2022-08-29T11:42:11.052Z,49.25
2022-08-29T11:52:20.300Z,48.37
2022-08-29T12:02:30.453Z,49.37
2022-08-29T12:12:49.300Z,46.53
2022-08-29T12:22:59.649Z,47.12
2022-08-29T12:33:09.806Z,45.80
2022-08-29T12:43:33.624Z,44.45
2022-08-29T12:53:38.315Z,45.13
2022-08-29T13:03:54.963Z,44.66
2022-08-29T13:14:11.540Z,44.08
2022-08-29T13:24:19.664Z,43.72
2022-08-29T13:34:22.160Z,42.34
2022-08-29T13:44:27.514Z,42.12
2022-08-29T13:54:31.428Z,41.14
2022-08-29T14:04:39.598Z,41.33
2022-08-29T14:14:46.886Z,41.01
2022-08-29T14:24:53.313Z,40.97
2022-08-29T14:34:57.415Z,41.02
2022-08-29T14:45:02.072Z,41.43
2022-08-29T14:55:04.809Z,41.58
2022-08-29T15:05:11.183Z,41.69
2022-08-29T15:15:15.867Z,42.17
2022-08-29T15:25:21.727Z,42.02
2022-08-29T15:35:27.496Z,41.98
2022-08-29T15:45:32.251Z,42.27
2022-08-29T15:55:34.625Z,43.25
2022-08-29T16:05:41.177Z,44.06
2022-08-29T16:15:49.505Z,45.11
2022-08-29T16:25:57.513Z,44.44
2022-08-29T16:36:04.396Z,44.53
2022-08-29T16:46:07.295Z,45.69
2022-08-29T16:56:14.384Z,46.81
2022-08-29T17:06:19.255Z,47.55
2022-08-29T17:16:22.619Z,48.42
2022-08-29T17:26:26.221Z,49.42
2022-08-29T17:36:30.595Z,50.48
2022-08-29T17:46:38.778Z,51.81
2022-08-29T17:56:51.472Z,53.26
2022-08-29T18:07:01.970Z,54.78
2022-08-29T18:17:12.233Z,56.79
2022-08-29T18:27:16.067Z,58.24
2022-08-29T18:37:23.023Z,60.14
2022-08-29T18:47:25.097Z,61.32
2022-08-29T18:57:30.140Z,62.99
2022-08-29T19:07:35.752Z,64.65
2022-08-29T19:17:42.985Z,66.70
2022-08-29T19:27:45.318Z,67.73
2022-08-29T19:37:53.105Z,69.77
2022-08-29T19:47:59.612Z,71.00
2022-08-29T19:58:01.710Z,72.90
2022-08-29T20:08:11.616Z,74.17
2022-08-29T20:18:14.456Z,76.33
2022-08-29T20:28:19.642Z,77.26
2022-08-29T20:38:23.964Z,78.52
2022-08-29T20:48:31.045Z,79.88
2022-08-29T20:58:38.135Z,80.54
2022-08-29T21:08:48.684Z,81.68
2022-08-29T21:18:52.636Z,82.69
2022-08-29T21:28:57.323Z,84.01
2022-08-29T21:39:03.227Z,85.54
2022-08-29T21:49:06.362Z,87.94
2022-08-29T21:59:12.964Z,90.33
2022-08-29T22:09:23.400Z,91.39
2022-08-29T22:19:34.362Z,92.74
2022-08-29T22:29:41.015Z,94.63
2022-08-29T22:39:44.109Z,94.61
2022-08-29T22:49:46.432Z,96.49
2022-08-29T22:59:51.421Z,98.50
2022-08-29T23:09:58.224Z,98.76
2022-08-29T23:20:07.238Z,100.00
2022-08-29T23:30:16.117Z,100.00
2022-08-29T23:40:19.140Z,100.00
2022-08-29T23:50:28.577Z,100.00
